Terminal Aerodrome Forecast
Issued by NWS Austin/San Antonio, TX

Home | Current Version | Previous Version | Text Only | Print | Product List | Glossary On
Versions: 1 2 3 4 5 6 7 8 9 10 11 12
000
FTUS44 KEWX 040532
TAFSAT
TAF
KSAT 040532Z 0406/0512 10009KT P6SM FEW070
     FM040900 17004KT P6SM SCT020
     FM041600 16010KT P6SM FEW050 SCT250=

USA.gov is the U.S. government's official web portal to all federal, state and local government web resources and services.